Time;durP1;ratioP1;P1;durP2;ratioP2;P2;SDS_P1;SDS_P2;PMS_P1;PMS_P2;Temp;Humidity;BMP_temperature;BMP_pressure;BME280_temperature;BME280_humidity;BME280_pressure;Samples;Min_cycle;Max_cycle;Signal;HPM_P1;HPM_P2
2023/04/14 00:01:46;;;;;;;36.90;19.17;;;7.80;99.90;;;;;;4419388;28;659293;-69
2023/04/14 00:04:33;;;;;;;36.37;18.67;;;7.80;99.90;;;;;;4424075;28;659166;-69
2023/04/14 00:07:20;;;;;;;33.85;17.92;;;7.80;99.90;;;;;;4414043;28;658598;-69
2023/04/14 00:10:10;;;;;;;34.33;18.03;;;7.80;99.90;;;;;;4432993;28;659303;-69
2023/04/14 00:12:57;;;;;;;32.73;17.60;;;7.80;99.90;;;;;;4425748;28;659840;-69
2023/04/14 00:15:44;;;;;;;40.63;19.23;;;7.80;99.90;;;;;;4452754;28;659207;-69
2023/04/14 00:18:31;;;;;;;37.80;18.83;;;7.90;99.90;;;;;;4427571;28;658639;-69
2023/04/14 00:21:19;;;;;;;39.07;18.83;;;7.90;99.90;;;;;;4449003;28;660027;-69
2023/04/14 00:24:06;;;;;;;38.03;19.90;;;7.90;99.90;;;;;;4430315;28;659095;-69
2023/04/14 00:26:55;;;;;;;39.50;19.77;;;7.80;99.90;;;;;;4450808;28;658964;-69
2023/04/14 00:29:42;;;;;;;38.67;19.30;;;7.70;99.90;;;;;;4426037;28;659745;-69
2023/04/14 00:32:30;;;;;;;45.37;19.13;;;7.70;99.90;;;;;;4446588;28;658655;-69
2023/04/14 00:35:17;;;;;;;41.03;19.27;;;7.70;99.90;;;;;;4448260;28;659762;-69
2023/04/14 00:38:05;;;;;;;41.57;18.77;;;7.70;99.90;;;;;;4448874;28;658491;-69
2023/04/14 00:40:52;;;;;;;37.03;18.53;;;7.70;99.90;;;;;;4436585;28;659978;-69
2023/04/14 00:43:41;;;;;;;40.27;19.07;;;7.70;99.90;;;;;;4449479;28;658321;-69
2023/04/14 00:46:28;;;;;;;39.30;20.20;;;7.70;99.90;;;;;;4425994;28;658620;-69
2023/04/14 00:49:15;;;;;;;37.03;18.70;;;7.70;99.90;;;;;;4429996;28;658711;-69
2023/04/14 00:52:03;;;;;;;36.70;19.80;;;7.70;99.90;;;;;;4450454;28;660143;-69
2023/04/14 00:54:50;;;;;;;37.88;18.73;;;7.70;99.90;;;;;;4452541;28;658388;-69
2023/04/14 00:57:38;;;;;;;38.33;19.00;;;7.70;99.90;;;;;;4454743;28;659860;-69
2023/04/14 01:00:27;;;;;;;38.03;19.20;;;7.70;99.90;;;;;;4458799;28;659126;-69
2023/04/14 01:03:14;;;;;;;36.50;18.50;;;7.70;99.90;;;;;;4466140;28;659366;-69
2023/04/14 01:06:01;;;;;;;46.27;19.83;;;7.70;99.90;;;;;;4428436;28;659253;-69
2023/04/14 01:08:48;;;;;;;40.43;17.80;;;7.70;99.90;;;;;;4449780;28;659379;-69
2023/04/14 01:11:40;;;;;;;42.57;19.17;;;7.60;99.90;;;;;;4430684;28;658860;-69
2023/04/14 01:14:32;;;;;;;43.80;19.88;;;7.60;99.90;;;;;;4446249;28;659146;-69
2023/04/14 01:17:25;;;;;;;50.20;20.97;;;7.60;99.90;;;;;;4426842;28;659188;-69
2023/04/14 01:20:17;;;;;;;45.23;19.90;;;7.60;99.90;;;;;;4425360;28;659805;-69
2023/04/14 01:23:06;;;;;;;86.03;19.00;;;7.60;99.90;;;;;;4426476;28;659244;-69
2023/04/14 01:26:15;;;;;;;36.47;18.07;;;7.60;99.90;;;;;;4426333;28;659232;-69
2023/04/14 01:29:41;;;;;;;45.40;20.57;;;7.50;99.90;;;;;;4423004;28;659776;-69
2023/04/14 01:32:33;;;;;;;65.37;19.67;;;7.50;99.90;;;;;;4426387;28;659226;-69
2023/04/14 01:35:21;;;;;;;45.20;18.13;;;7.50;99.90;;;;;;4430563;28;658378;-69
2023/04/14 01:38:09;;;;;;;44.80;20.20;;;7.50;99.90;;;;;;4468176;28;659136;-69
2023/04/14 01:40:57;;;;;;;42.40;20.23;;;7.50;99.90;;;;;;4426652;28;658335;-69
2023/04/14 01:43:45;;;;;;;44.87;21.40;;;7.50;99.90;;;;;;4446137;28;658555;-69
2023/04/14 01:46:33;;;;;;;47.83;23.10;;;7.50;99.90;;;;;;4465579;28;659174;-69
2023/04/14 01:49:22;;;;;;;80.20;29.27;;;7.50;99.90;;;;;;4443867;28;658703;-69
2023/04/14 01:52:09;;;;;;;167.93;43.43;;;7.50;99.90;;;;;;4449096;28;658735;-69
2023/04/14 01:54:57;;;;;;;133.97;38.13;;;7.50;99.90;;;;;;4424941;28;660799;-69
2023/04/14 01:57:47;;;;;;;114.87;35.43;;;7.60;99.90;;;;;;4448306;28;660248;-69
2023/04/14 02:00:35;;;;;;;110.50;37.20;;;7.60;99.90;;;;;;4440858;28;660314;-69
2023/04/14 02:03:22;;;;;;;88.05;31.23;;;7.60;99.90;;;;;;4429120;28;660563;-69
2023/04/14 02:06:11;;;;;;;59.20;26.67;;;7.60;99.90;;;;;;4466013;28;658364;-69
2023/04/14 02:08:59;;;;;;;65.20;28.03;;;7.60;99.90;;;;;;4426334;28;659442;-69
2023/04/14 02:11:47;;;;;;;81.07;28.37;;;7.60;99.90;;;;;;4429699;28;658576;-69
2023/04/14 02:14:35;;;;;;;48.10;23.70;;;7.60;99.90;;;;;;4464524;28;658906;-69
2023/04/14 02:17:22;;;;;;;45.23;22.07;;;7.60;99.90;;;;;;4453408;28;659994;-69
2023/04/14 02:20:10;;;;;;;66.17;27.73;;;7.60;99.90;;;;;;4464894;28;658373;-69
2023/04/14 02:22:59;;;;;;;61.53;25.63;;;7.60;99.90;;;;;;4426024;28;659726;-69
2023/04/14 02:25:49;;;;;;;49.30;23.30;;;7.60;99.90;;;;;;4446387;28;658700;-69
2023/04/14 02:28:38;;;;;;;42.40;21.77;;;7.70;99.90;;;;;;4430006;28;659230;-69
2023/04/14 02:31:25;;;;;;;41.37;21.50;;;7.70;99.90;;;;;;4446149;28;659424;-69
2023/04/14 02:34:13;;;;;;;55.53;24.50;;;7.70;99.90;;;;;;4448438;28;659748;-69
2023/04/14 02:37:02;;;;;;;86.27;28.73;;;7.70;99.90;;;;;;4446338;28;658572;-69
2023/04/14 02:39:55;;;;;;;86.40;29.63;;;7.60;99.90;;;;;;4450323;28;658390;-69
2023/04/14 02:42:46;;;;;;;76.93;28.50;;;7.60;99.90;;;;;;4421822;28;659437;-69
2023/04/14 02:45:34;;;;;;;67.77;27.67;;;7.70;99.90;;;;;;4445368;28;658835;-69
2023/04/14 02:48:23;;;;;;;77.67;28.43;;;7.60;99.90;;;;;;4433252;28;658765;-69
2023/04/14 02:51:11;;;;;;;78.60;27.53;;;7.60;99.90;;;;;;4432712;28;658906;-69
2023/04/14 02:53:58;;;;;;;78.55;28.63;;;7.50;99.90;;;;;;4468523;28;659703;-69
2023/04/14 02:56:47;;;;;;;64.53;27.43;;;7.50;99.90;;;;;;4433658;28;658699;-69
2023/04/14 02:59:34;;;;;;;76.67;28.93;;;7.50;99.90;;;;;;4468321;28;658496;-69
2023/04/14 03:02:21;;;;;;;62.28;27.00;;;7.50;99.90;;;;;;4432377;28;659106;-69
2023/04/14 03:05:09;;;;;;;83.53;32.53;;;7.60;99.90;;;;;;4468320;28;658411;-69
2023/04/14 03:07:56;;;;;;;54.27;25.07;;;7.60;99.90;;;;;;4430607;28;658674;-69
2023/04/14 03:10:44;;;;;;;52.17;23.90;;;7.60;99.90;;;;;;4468323;28;659778;-69
2023/04/14 03:13:33;;;;;;;47.07;24.47;;;7.60;99.90;;;;;;4432775;28;658860;-69
2023/04/14 03:16:20;;;;;;;47.47;23.30;;;7.60;99.90;;;;;;4449252;28;658875;-69
2023/04/14 03:19:09;;;;;;;48.43;24.20;;;7.60;99.90;;;;;;4466347;28;658590;-69
2023/04/14 03:21:57;;;;;;;47.67;24.33;;;7.60;99.90;;;;;;4432573;28;658534;-69
2023/04/14 03:24:45;;;;;;;43.10;22.57;;;7.60;99.90;;;;;;4451642;27;659214;-69
2023/04/14 03:27:32;;;;;;;44.10;22.17;;;7.60;99.90;;;;;;4428517;28;660256;-69
2023/04/14 03:30:21;;;;;;;38.97;22.03;;;7.60;99.90;;;;;;4468241;27;659449;-69
2023/04/14 03:33:10;;;;;;;43.97;22.57;;;7.50;99.90;;;;;;4444640;28;659571;-69
2023/04/14 03:35:58;;;;;;;44.53;22.43;;;7.50;99.90;;;;;;4428032;28;660140;-69
2023/04/14 03:38:45;;;;;;;41.47;23.03;;;7.40;99.90;;;;;;4461890;28;658691;-70
2023/04/14 03:41:34;;;;;;;44.30;23.20;;;7.30;99.90;;;;;;4454754;28;659109;-70
2023/04/14 03:44:22;;;;;;;42.83;21.70;;;7.20;99.90;;;;;;4448977;28;659377;-70
2023/04/14 03:47:11;;;;;;;39.17;20.73;;;7.20;99.90;;;;;;4471418;28;658301;-70
2023/04/14 03:50:00;;;;;;;42.50;22.77;;;7.10;99.90;;;;;;4444436;28;659020;-70
2023/04/14 03:52:47;;;;;;;40.60;22.53;;;7.00;99.90;;;;;;4444494;28;660038;-70
2023/04/14 03:55:34;;;;;;;84.50;21.87;;;7.00;99.90;;;;;;4451277;28;659170;-70
2023/04/14 03:58:21;;;;;;;42.27;21.40;;;6.90;99.90;;;;;;4428123;28;658393;-70
2023/04/14 04:01:09;;;;;;;42.53;22.10;;;6.80;99.90;;;;;;4467408;28;659404;-70
2023/04/14 04:03:57;;;;;;;39.20;21.43;;;6.80;99.90;;;;;;4448356;28;659453;-70
2023/04/14 04:06:44;;;;;;;45.13;21.43;;;6.80;99.90;;;;;;4467464;28;658929;-70
2023/04/14 04:09:32;;;;;;;45.67;23.10;;;6.80;99.90;;;;;;4426834;28;659643;-69
2023/04/14 04:12:20;;;;;;;43.57;22.03;;;6.90;99.90;;;;;;4464777;28;659258;-70
2023/04/14 04:15:08;;;;;;;42.73;22.33;;;6.90;99.90;;;;;;4444109;28;659919;-70
2023/04/14 04:17:55;;;;;;;41.08;22.33;;;7.00;99.90;;;;;;4431574;28;658821;-70
2023/04/14 04:20:45;;;;;;;41.80;23.47;;;7.00;99.90;;;;;;4450626;28;659568;-70
2023/04/14 04:23:32;;;;;;;51.30;25.30;;;7.10;99.90;;;;;;4431582;28;659447;-70
2023/04/14 04:26:19;;;;;;;47.87;25.33;;;7.10;99.90;;;;;;4450562;28;659024;-69
2023/04/14 04:29:07;;;;;;;49.10;26.33;;;7.10;99.90;;;;;;4447750;28;659859;-69
2023/04/14 04:31:54;;;;;;;56.53;28.90;;;7.10;99.90;;;;;;4448578;28;659003;-70
2023/04/14 04:34:41;;;;;;;58.30;29.70;;;7.10;99.90;;;;;;4431294;28;658483;-69
2023/04/14 04:37:30;;;;;;;52.50;28.80;;;7.20;99.90;;;;;;4449977;28;660032;-69
2023/04/14 04:40:17;;;;;;;54.73;28.00;;;7.30;99.90;;;;;;4427203;28;660191;-69
2023/04/14 04:43:04;;;;;;;49.87;25.43;;;7.30;99.90;;;;;;4466309;28;659434;-70
2023/04/14 04:46:09;;;;;;;48.23;24.33;;;7.40;99.90;;;;;;4431783;28;658575;-69
2023/04/14 04:48:56;;;;;;;53.77;25.87;;;7.50;99.90;;;;;;4403905;28;659264;-69
2023/04/14 04:51:43;;;;;;;55.30;26.73;;;7.50;99.90;;;;;;4449773;28;660289;-69
2023/04/14 04:54:32;;;;;;;49.47;24.80;;;7.60;99.90;;;;;;4447819;28;658527;-70
2023/04/14 04:57:19;;;;;;;46.03;24.20;;;7.70;99.90;;;;;;4449375;28;659580;-69
2023/04/14 05:00:08;;;;;;;49.17;24.37;;;7.70;99.90;;;;;;4430942;28;659148;-69
2023/04/14 05:02:56;;;;;;;52.03;26.60;;;7.70;99.90;;;;;;4429944;28;658946;-69
2023/04/14 05:05:43;;;;;;;56.23;26.53;;;7.70;99.90;;;;;;4470455;28;660202;-70
2023/04/14 05:08:30;;;;;;;49.83;26.07;;;7.80;99.90;;;;;;4433955;28;658839;-70
2023/04/14 05:11:19;;;;;;;56.57;26.33;;;7.80;99.90;;;;;;4453575;28;659040;-70
2023/04/14 05:14:06;;;;;;;54.90;26.90;;;7.80;99.90;;;;;;4446250;28;658650;-70
2023/04/14 05:16:53;;;;;;;60.93;29.57;;;7.90;99.90;;;;;;4450133;28;659751;-69
2023/04/14 05:19:41;;;;;;;56.37;26.60;;;7.90;99.90;;;;;;4447023;28;658524;-70
2023/04/14 05:22:28;;;;;;;58.67;28.30;;;8.00;99.90;;;;;;4454264;28;660202;-70
2023/04/14 05:25:15;;;;;;;57.83;27.73;;;8.10;99.90;;;;;;4433685;28;658746;-70
2023/04/14 05:28:04;;;;;;;64.33;28.40;;;8.10;99.90;;;;;;4465727;28;659657;-70
2023/04/14 05:30:51;;;;;;;65.57;29.40;;;8.20;99.90;;;;;;4430107;28;659564;-70
2023/04/14 05:33:38;;;;;;;64.93;29.00;;;8.20;99.90;;;;;;4449010;28;659394;-69
2023/04/14 05:36:26;;;;;;;64.20;29.97;;;8.30;99.90;;;;;;4446783;28;659356;-69
2023/04/14 05:39:13;;;;;;;80.57;33.80;;;8.40;99.90;;;;;;4449824;28;659303;-69
2023/04/14 05:42:00;;;;;;;83.43;33.83;;;8.50;99.90;;;;;;4446532;28;658608;-70
2023/04/14 05:44:49;;;;;;;67.40;27.47;;;8.60;99.90;;;;;;4453748;28;659445;-70
2023/04/14 05:47:38;;;;;;;73.43;28.17;;;8.80;99.90;;;;;;4446246;28;658799;-70
2023/04/14 05:50:25;;;;;;;57.50;25.80;;;8.90;99.90;;;;;;4429601;28;659001;-70
2023/04/14 05:53:13;;;;;;;53.83;25.70;;;8.90;99.90;;;;;;4447117;28;659482;-70
2023/04/14 05:56:00;;;;;;;60.47;29.00;;;9.00;99.90;;;;;;4430357;28;658584;-70
2023/04/14 05:58:47;;;;;;;54.43;24.43;;;9.10;99.90;;;;;;4446820;28;659263;-70
2023/04/14 06:01:36;;;;;;;60.37;28.67;;;9.20;99.90;;;;;;4450851;28;658056;-70
2023/04/14 06:04:24;;;;;;;59.37;27.23;;;9.40;99.90;;;;;;4447037;28;659174;-70
2023/04/14 06:07:11;;;;;;;48.73;24.50;;;9.60;99.90;;;;;;4428008;28;659502;-70
2023/04/14 06:09:58;;;;;;;50.47;25.20;;;9.80;99.90;;;;;;4447894;28;659223;-70
2023/04/14 06:12:45;;;;;;;46.10;23.77;;;9.90;99.90;;;;;;4412165;28;658946;-70
2023/04/14 06:15:32;;;;;;;42.17;22.40;;;10.10;99.90;;;;;;4451661;28;659651;-71
2023/04/14 06:18:22;;;;;;;40.67;22.10;;;10.20;99.90;;;;;;4448000;28;659461;-70
2023/04/14 06:21:09;;;;;;;40.20;22.17;;;10.30;99.90;;;;;;4449786;28;659867;-71
2023/04/14 06:23:57;;;;;;;43.30;23.07;;;10.40;99.90;;;;;;4431046;28;660375;-70
2023/04/14 06:26:44;;;;;;;40.70;21.90;;;10.70;99.90;;;;;;4449925;28;659435;-71
2023/04/14 06:29:31;;;;;;;38.07;19.67;;;11.00;99.90;;;;;;4430676;28;659713;-71
2023/04/14 06:32:18;;;;;;;32.27;16.57;;;11.10;99.90;;;;;;4449819;28;660831;-71
2023/04/14 06:35:08;;;;;;;31.60;16.43;;;11.30;99.90;;;;;;4430276;28;659659;-70
2023/04/14 06:37:55;;;;;;;34.97;17.77;;;11.40;99.90;;;;;;4439396;28;660419;-70
2023/04/14 06:40:42;;;;;;;31.23;17.07;;;11.60;99.90;;;;;;4449409;28;660830;-71
2023/04/14 06:43:30;;;;;;;36.37;18.33;;;11.80;99.90;;;;;;4445546;28;659997;-70
2023/04/14 06:46:17;;;;;;;30.17;16.40;;;12.00;99.90;;;;;;4448373;28;660263;-71
2023/04/14 06:49:04;;;;;;;25.87;14.13;;;11.90;99.90;;;;;;4449079;28;659716;-70
2023/04/14 06:51:53;;;;;;;30.57;15.70;;;12.00;99.90;;;;;;4427865;28;660743;-71
2023/04/14 06:54:41;;;;;;;24.70;14.70;;;12.20;99.90;;;;;;4431630;28;659847;-71
2023/04/14 06:57:28;;;;;;;27.90;15.00;;;12.10;99.90;;;;;;4455202;28;660317;-71
2023/04/14 07:00:16;;;;;;;33.83;17.05;;;12.20;99.90;;;;;;4453105;28;660685;-71
2023/04/14 07:03:03;;;;;;;38.00;18.20;;;12.30;99.90;;;;;;4454270;28;659829;-71
2023/04/14 07:05:50;;;;;;;27.10;14.77;;;12.40;99.90;;;;;;4431920;28;660138;-71
2023/04/14 07:08:39;;;;;;;33.00;15.80;;;12.40;99.90;;;;;;4450310;28;660502;-71
2023/04/14 07:11:27;;;;;;;28.57;15.83;;;12.40;99.90;;;;;;4431898;28;659722;-70
2023/04/14 07:14:14;;;;;;;29.27;14.77;;;12.50;99.90;;;;;;4450705;28;659894;-71
2023/04/14 07:17:01;;;;;;;36.77;18.23;;;12.50;99.90;;;;;;4443841;28;660030;-71
2023/04/14 07:19:49;;;;;;;28.73;15.53;;;12.40;99.90;;;;;;4450403;28;659841;-70
2023/04/14 07:22:36;;;;;;;24.30;13.70;;;12.10;99.90;;;;;;4429841;28;660291;-71
2023/04/14 07:25:24;;;;;;;31.73;14.13;;;12.20;99.90;;;;;;4467644;28;659925;-71
2023/04/14 07:28:12;;;;;;;30.63;15.30;;;12.50;99.90;;;;;;4443979;28;660988;-71
2023/04/14 07:31:00;;;;;;;37.17;16.73;;;12.40;99.90;;;;;;4466689;28;660171;-71
2023/04/14 07:33:47;;;;;;;20.00;12.20;;;12.50;99.90;;;;;;4426962;28;661092;-71
2023/04/14 07:36:34;;;;;;;32.27;16.97;;;12.60;99.90;;;;;;4454724;28;659807;-71
2023/04/14 07:39:21;;;;;;;35.80;19.83;;;12.60;99.90;;;;;;4447256;28;660280;-71
2023/04/14 07:42:10;;;;;;;29.43;17.13;;;12.70;99.90;;;;;;4449906;28;661531;-71
2023/04/14 07:44:57;;;;;;;23.10;12.83;;;12.90;99.90;;;;;;4447575;28;660851;-71
2023/04/14 07:47:44;;;;;;;18.70;10.70;;;13.10;99.90;;;;;;4466310;28;659901;-72
2023/04/14 07:50:32;;;;;;;23.83;11.73;;;13.40;99.90;;;;;;4447127;28;660355;-71
2023/04/14 07:53:19;;;;;;;16.27;9.83;;;13.70;99.90;;;;;;4448014;28;660180;-71
2023/04/14 07:56:06;;;;;;;17.92;9.63;;;13.80;99.90;;;;;;4425313;28;658727;-71
2023/04/14 07:58:55;;;;;;;22.27;11.30;;;13.90;99.90;;;;;;4432829;28;660022;-71
2023/04/14 08:01:42;;;;;;;20.87;9.80;;;14.10;99.90;;;;;;4425050;28;660673;-71
2023/04/14 08:04:30;;;;;;;18.67;10.30;;;14.00;99.90;;;;;;4452538;28;658778;-71
2023/04/14 08:07:17;;;;;;;18.30;11.07;;;13.90;99.90;;;;;;4429185;28;660982;-72
2023/04/14 08:10:05;;;;;;;17.93;10.03;;;13.80;99.90;;;;;;4448164;28;660039;-71
2023/04/14 08:12:52;;;;;;;15.43;9.83;;;13.70;99.90;;;;;;4429020;28;661107;-71
2023/04/14 08:15:41;;;;;;;22.13;13.03;;;13.70;99.90;;;;;;4448068;28;658597;-72
2023/04/14 08:18:28;;;;;;;21.23;12.23;;;13.80;99.90;;;;;;4424763;28;659666;-72
2023/04/14 08:21:16;;;;;;;19.33;11.87;;;14.00;99.90;;;;;;4427706;28;659579;-71
2023/04/14 08:24:05;;;;;;;15.83;9.83;;;14.20;99.90;;;;;;4448094;28;661355;-71
2023/04/14 08:26:52;;;;;;;15.77;9.13;;;14.20;99.90;;;;;;4429682;28;660052;-71
2023/04/14 08:29:39;;;;;;;14.57;9.13;;;14.20;99.90;;;;;;4449082;28;658970;-72
2023/04/14 08:32:28;;;;;;;33.90;15.13;;;14.10;99.90;;;;;;4424424;28;658323;-72
2023/04/14 08:35:15;;;;;;;13.97;8.10;;;14.30;99.90;;;;;;4432954;28;659750;-71
2023/04/14 08:38:02;;;;;;;16.93;10.87;;;14.70;99.90;;;;;;4452288;28;660199;-72
2023/04/14 08:40:51;;;;;;;14.87;8.60;;;14.90;99.90;;;;;;4425662;28;659853;-71
2023/04/14 08:43:38;;;;;;;24.15;11.80;;;14.90;99.90;;;;;;4449002;28;660182;-72
2023/04/14 08:46:26;;;;;;;25.40;11.83;;;15.00;99.90;;;;;;4428673;28;659604;-71
2023/04/14 08:49:18;;;;;;;37.90;15.67;;;15.30;99.90;;;;;;4448813;28;659637;-73
2023/04/14 08:52:05;;;;;;;14.97;7.70;;;15.80;99.90;;;;;;4407008;28;659687;-70
2023/04/14 08:54:52;;;;;;;9.30;5.50;;;15.80;99.90;;;;;;4450601;28;659705;-72
2023/04/14 08:57:40;;;;;;;11.77;5.20;;;16.10;97.70;;;;;;4451494;28;657316;-72
2023/04/14 09:00:27;;;;;;;10.53;5.63;;;16.40;95.10;;;;;;4426713;28;660009;-71
2023/04/14 09:03:14;;;;;;;11.17;5.97;;;16.70;93.20;;;;;;4450449;28;659343;-71
2023/04/14 09:06:04;;;;;;;12.87;6.50;;;17.00;92.70;;;;;;4427472;28;658580;-72
2023/04/14 09:08:51;;;;;;;10.83;6.10;;;17.00;93.40;;;;;;4446240;28;658671;-71
2023/04/14 09:11:38;;;;;;;10.97;5.67;;;17.20;90.00;;;;;;4449746;28;659402;-72
2023/04/14 09:14:25;;;;;;;7.80;5.20;;;17.50;84.00;;;;;;4431395;28;658644;-72
2023/04/14 09:17:12;;;;;;;8.93;5.47;;;17.70;82.40;;;;;;4466707;28;658371;-72
2023/04/14 09:20:01;;;;;;;8.93;5.20;;;17.90;84.10;;;;;;4462413;28;657466;-72
2023/04/14 09:22:50;;;;;;;8.83;5.60;;;18.00;81.30;;;;;;4453432;28;657862;-72
2023/04/14 09:25:38;;;;;;;9.33;5.77;;;17.80;78.30;;;;;;4428155;28;659101;-72
2023/04/14 09:28:25;;;;;;;7.73;5.17;;;17.70;78.50;;;;;;4442744;28;657945;-71
2023/04/14 09:31:12;;;;;;;12.27;6.63;;;17.40;77.30;;;;;;4455208;28;658405;-72
2023/04/14 09:34:00;;;;;;;8.50;5.80;;;17.50;75.60;;;;;;4449674;28;658821;-72
2023/04/14 09:37:03;;;;;;;9.07;5.80;;;17.40;77.60;;;;;;4455056;28;658083;-72
2023/04/14 09:39:53;;;;;;;9.13;5.50;;;17.70;74.80;;;;;;4407556;28;657828;-71
2023/04/14 09:42:41;;;;;;;12.83;6.70;;;17.60;75.70;;;;;;4443142;28;657699;-71
2023/04/14 09:45:41;;;;;;;11.03;6.40;;;17.40;76.20;;;;;;4449782;27;659988;-72
2023/04/14 09:48:29;;;;;;;12.50;7.23;;;17.10;77.80;;;;;;4423590;28;658867;-72
2023/04/14 09:51:16;;;;;;;13.47;7.23;;;17.00;78.80;;;;;;4445916;28;659185;-72
2023/04/14 09:54:04;;;;;;;30.00;15.37;;;16.80;80.40;;;;;;4465626;28;659325;-72
2023/04/14 09:56:53;;;;;;;15.40;9.07;;;16.70;82.10;;;;;;4425084;28;659433;-72
2023/04/14 09:59:41;;;;;;;15.63;8.00;;;16.70;85.70;;;;;;4434941;28;658945;-71
2023/04/14 10:02:28;;;;;;;19.20;10.90;;;16.60;83.50;;;;;;4448701;28;659053;-72
2023/04/14 10:05:15;;;;;;;13.80;8.68;;;16.20;82.00;;;;;;4432080;28;659474;-71
2023/04/14 10:08:03;;;;;;;10.33;5.93;;;16.00;85.70;;;;;;4449607;28;660175;-72
2023/04/14 10:10:50;;;;;;;11.60;6.20;;;15.70;84.90;;;;;;4430477;28;658740;-70
2023/04/14 10:13:39;;;;;;;8.83;5.80;;;15.50;88.70;;;;;;4454130;28;658769;-72
2023/04/14 10:16:26;;;;;;;9.70;6.07;;;15.40;85.80;;;;;;4446364;28;657614;-72
2023/04/14 10:19:13;;;;;;;12.93;7.60;;;15.40;88.00;;;;;;4466312;28;657741;-72
2023/04/14 10:22:00;;;;;;;10.60;5.87;;;15.40;87.80;;;;;;4429596;28;658815;-71
2023/04/14 10:24:48;;;;;;;8.40;4.90;;;15.40;88.40;;;;;;4448351;28;660080;-72
2023/04/14 10:27:35;;;;;;;6.90;3.77;;;15.40;86.30;;;;;;4444358;28;657475;-71
2023/04/14 10:30:24;;;;;;;8.37;3.97;;;15.40;81.40;;;;;;4453703;28;657790;-72
2023/04/14 10:33:11;;;;;;;7.37;4.60;;;15.40;83.50;;;;;;4431569;28;658009;-72
2023/04/14 10:36:00;;;;;;;8.60;4.50;;;15.30;83.10;;;;;;4449925;28;658215;-73
2023/04/14 10:38:48;;;;;;;7.10;3.50;;;15.20;82.70;;;;;;4425476;28;658987;-72
2023/04/14 10:41:45;;;;;;;5.33;3.60;;;15.30;79.70;;;;;;4444155;28;657170;-72
2023/04/14 10:44:33;;;;;;;9.07;4.97;;;15.30;79.60;;;;;;4430947;28;657592;-72
2023/04/14 10:47:24;;;;;;;7.17;4.07;;;15.40;79.40;;;;;;4447353;28;657894;-70
2023/04/14 10:50:13;;;;;;;6.10;4.13;;;15.40;78.60;;;;;;4426661;28;657620;-72
2023/04/14 10:53:08;;;;;;;10.33;5.20;;;15.60;76.90;;;;;;4455577;28;657280;-70
2023/04/14 10:55:56;;;;;;;9.93;4.40;;;15.70;75.50;;;;;;4435087;28;658867;-72
2023/04/14 10:58:53;;;;;;;6.83;3.83;;;15.80;72.10;;;;;;4454511;28;658172;-73
2023/04/14 11:01:40;;;;;;;8.83;3.40;;;15.90;74.50;;;;;;4410022;28;657315;-71
2023/04/14 11:04:29;;;;;;;5.57;2.97;;;15.90;70.50;;;;;;4452895;28;657672;-72
2023/04/14 11:07:20;;;;;;;18.73;6.87;;;16.10;71.50;;;;;;4434171;28;657601;-72
2023/04/14 11:10:27;;;;;;;8.40;4.40;;;16.20;71.40;;;;;;4428322;28;660485;-73
2023/04/14 11:13:14;;;;;;;9.10;4.50;;;16.30;71.30;;;;;;4429772;28;658192;-72
2023/04/14 11:16:02;;;;;;;5.77;4.07;;;16.40;70.40;;;;;;4433798;28;657676;-73
2023/04/14 11:18:50;;;;;;;12.13;6.00;;;16.60;70.50;;;;;;4452865;28;658343;-72
2023/04/14 11:21:48;;;;;;;7.37;4.50;;;16.70;69.60;;;;;;4428664;28;659389;-72
2023/04/14 11:24:36;;;;;;;5.00;3.13;;;16.80;70.80;;;;;;4410983;28;657584;-72
2023/04/14 11:27:23;;;;;;;5.43;3.33;;;16.90;70.50;;;;;;4456274;28;658814;-73
2023/04/14 11:30:14;;;;;;;16.20;6.93;;;17.40;68.20;;;;;;4450184;28;657597;-71
2023/04/14 11:33:01;;;;;;;7.40;3.67;;;18.00;68.30;;;;;;4432820;28;658755;-72
2023/04/14 11:35:48;;;;;;;6.03;3.57;;;18.60;61.00;;;;;;4453028;28;658415;-73
2023/04/14 11:38:39;;;;;;;9.80;3.10;;;18.90;57.30;;;;;;4434252;28;657669;-72
2023/04/14 11:41:26;;;;;;;7.25;2.88;;;19.00;55.50;;;;;;4446001;28;657432;-73
2023/04/14 11:44:16;;;;;;;7.23;2.80;;;19.00;54.60;;;;;;4468569;28;658436;-73
2023/04/14 11:47:04;;;;;;;8.27;4.07;;;19.40;54.10;;;;;;4433823;28;658779;-72
2023/04/14 11:49:51;;;;;;;7.77;3.70;;;19.10;52.00;;;;;;4434400;28;657259;-72
2023/04/14 11:52:44;;;;;;;3.63;2.70;;;18.60;52.20;;;;;;4468544;28;658625;-72
2023/04/14 11:55:33;;;;;;;5.07;3.00;;;18.20;52.30;;;;;;4426841;28;658157;-73
2023/04/14 11:58:21;;;;;;;6.63;2.97;;;17.90;53.00;;;;;;4449710;28;657445;-72
2023/04/14 12:01:09;;;;;;;4.63;2.80;;;17.80;53.40;;;;;;4468161;28;658599;-73
2023/04/14 12:03:56;;;;;;;5.73;2.90;;;17.80;54.00;;;;;;4449610;28;657643;-72
2023/04/14 12:06:44;;;;;;;5.80;3.10;;;17.80;54.10;;;;;;4452161;28;658316;-73
2023/04/14 12:09:31;;;;;;;5.67;2.67;;;17.90;55.70;;;;;;4430919;28;657618;-72
2023/04/14 12:12:20;;;;;;;5.27;3.40;;;17.90;56.30;;;;;;4451185;28;658603;-73
2023/04/14 12:15:08;;;;;;;4.73;3.30;;;18.00;56.50;;;;;;4429277;28;657761;-73
2023/04/14 12:17:55;;;;;;;5.13;3.00;;;18.20;55.60;;;;;;4449084;28;657541;-72
2023/04/14 12:20:43;;;;;;;4.60;3.07;;;18.20;54.30;;;;;;4468401;28;658470;-73
2023/04/14 12:23:34;;;;;;;4.03;2.80;;;18.60;54.30;;;;;;4462160;28;657538;-71
2023/04/14 12:26:21;;;;;;;4.07;2.90;;;18.70;53.00;;;;;;4429926;28;657910;-73
2023/04/14 12:29:12;;;;;;;4.37;3.17;;;18.80;54.60;;;;;;4452244;28;658710;-73
2023/04/14 12:31:59;;;;;;;6.40;3.50;;;19.10;54.20;;;;;;4444984;28;657965;-73
2023/04/14 12:34:54;;;;;;;7.27;4.17;;;18.60;52.60;;;;;;4448183;28;657705;-72
2023/04/14 12:37:48;;;;;;;7.83;3.73;;;18.60;54.60;;;;;;4409744;28;657883;-73
2023/04/14 12:40:39;;;;;;;7.73;4.10;;;18.70;53.20;;;;;;4409786;28;657622;-70
2023/04/14 12:43:32;;;;;;;7.47;4.37;;;18.40;52.90;;;;;;4432352;28;657371;-73
2023/04/14 12:46:26;;;;;;;6.07;3.17;;;18.30;53.80;;;;;;4428321;28;657711;-73
2023/04/14 12:49:29;;;;;;;13.97;4.37;;;18.50;54.00;;;;;;4427941;28;658044;-73
2023/04/14 12:52:35;;;;;;;11.37;4.10;;;18.80;54.10;;;;;;4403732;28;659100;-72
2023/04/14 12:55:23;;;;;;;9.67;4.80;;;19.00;54.60;;;;;;4420135;28;659215;-73
2023/04/14 12:58:10;;;;;;;11.53;5.10;;;18.90;54.80;;;;;;4448834;28;658360;-72
2023/04/14 13:00:57;;;;;;;9.53;4.40;;;18.80;54.20;;;;;;4466309;28;659461;-73
2023/04/14 13:03:49;;;;;;;6.70;3.83;;;18.40;53.80;;;;;;4462843;28;657944;-72
2023/04/14 13:06:36;;;;;;;6.60;4.03;;;18.00;56.00;;;;;;4432307;28;657597;-72
2023/04/14 13:09:23;;;;;;;9.77;4.83;;;17.90;56.20;;;;;;4451732;28;658188;-73
2023/04/14 13:12:11;;;;;;;7.60;4.33;;;17.70;58.00;;;;;;4431756;28;657941;-71
2023/04/14 13:14:58;;;;;;;8.33;4.73;;;17.60;57.60;;;;;;4455755;28;658289;-73
2023/04/14 13:17:45;;;;;;;8.17;4.43;;;17.40;58.60;;;;;;4453407;28;657683;-72
2023/04/14 13:20:34;;;;;;;11.30;4.70;;;17.30;59.00;;;;;;4467465;28;658599;-73
2023/04/14 13:23:21;;;;;;;14.07;7.70;;;17.10;58.00;;;;;;4430310;28;658686;-73
2023/04/14 13:26:08;;;;;;;11.37;7.50;;;17.00;59.30;;;;;;4449854;28;659864;-74
2023/04/14 13:28:56;;;;;;;8.97;5.20;;;17.00;60.90;;;;;;4430356;28;659236;-73
2023/04/14 13:31:43;;;;;;;12.37;5.20;;;17.10;61.50;;;;;;4451380;28;658492;-73
2023/04/14 13:34:31;;;;;;;9.97;5.10;;;16.90;61.30;;;;;;4454152;28;659321;-72
2023/04/14 13:37:20;;;;;;;7.40;4.80;;;16.90;61.90;;;;;;4467184;28;658199;-73
2023/04/14 13:40:09;;;;;;;13.03;6.67;;;16.80;62.30;;;;;;4428939;28;657888;-73
2023/04/14 13:42:56;;;;;;;12.90;6.27;;;16.80;63.70;;;;;;4446896;28;658628;-72
2023/04/14 13:45:43;;;;;;;10.50;5.40;;;16.80;65.00;;;;;;4449239;28;659167;-73
2023/04/14 13:48:31;;;;;;;8.60;5.10;;;16.80;64.50;;;;;;4430625;28;658582;-71
2023/04/14 13:51:18;;;;;;;9.50;4.87;;;16.70;64.80;;;;;;4453081;28;658597;-73
2023/04/14 13:54:07;;;;;;;16.30;5.97;;;16.60;66.80;;;;;;4431356;28;657848;-71
2023/04/14 13:56:55;;;;;;;8.07;4.87;;;16.50;66.00;;;;;;4449130;28;658277;-73
2023/04/14 13:59:42;;;;;;;19.43;7.43;;;16.40;65.70;;;;;;4432369;28;658331;-72
2023/04/14 14:02:31;;;;;;;16.20;7.30;;;16.30;65.40;;;;;;4449794;28;658544;-73
2023/04/14 14:05:18;;;;;;;16.80;8.80;;;16.20;67.00;;;;;;4425875;28;658982;-73
2023/04/14 14:08:05;;;;;;;27.93;14.67;;;16.10;67.50;;;;;;4430723;28;659094;-71
2023/04/14 14:10:54;;;;;;;26.77;13.10;;;16.00;67.90;;;;;;4447595;28;660846;-73
2023/04/14 14:13:41;;;;;;;25.33;11.13;;;15.90;67.90;;;;;;4424735;28;660298;-73
2023/04/14 14:16:29;;;;;;;15.37;7.80;;;15.90;67.90;;;;;;4464339;28;660089;-73